Time;durP1;ratioP1;P1;durP2;ratioP2;P2;SDS_P1;SDS_P2;PMS_P1;PMS_P2;Temp;Humidity;BMP_temperature;BMP_pressure;BME280_temperature;BME280_humidity;BME280_pressure;Samples;Min_cycle;Max_cycle;Signal;HPM_P1;HPM_P2
2021/12/23 00:01:04;;;;;;;16.00;6.30;;;;;;;-2.78;49.86;101802.16;4973451;28;20105;-68
2021/12/23 00:03:30;;;;;;;13.95;7.18;;;;;;;-2.77;49.64;101807.34;4959579;28;20404;-67
2021/12/23 00:05:55;;;;;;;17.13;7.65;;;;;;;-2.81;49.56;101796.97;4972484;28;20042;-68
2021/12/23 00:08:21;;;;;;;23.98;9.43;;;;;;;-2.85;49.44;101785.75;4972830;28;20047;-68
2021/12/23 00:10:47;;;;;;;15.57;7.15;;;;;;;-2.75;49.40;101786.94;4972629;28;20082;-68
2021/12/23 00:13:13;;;;;;;16.73;7.63;;;;;;;-2.66;49.53;101782.94;4973243;28;20500;-68
2021/12/23 00:16:00;;;;;;;15.70;7.10;;;;;;;-2.73;49.15;101780.16;4970593;28;20618;-68
2021/12/23 00:23:47;;;;;;;20.00;6.60;;;;;;;-2.95;49.43;101769.28;4970610;28;20088;-68
2021/12/23 00:26:15;;;;;;;17.17;7.90;;;;;;;-2.94;49.90;101765.88;4955370;28;20085;-69
2021/12/23 00:28:40;;;;;;;16.08;8.27;;;;;;;-2.95;49.77;101768.41;4969123;28;20703;-69
2021/12/23 00:31:06;;;;;;;15.65;7.72;;;;;;;-2.93;49.77;101757.41;4972063;28;20045;-69
2021/12/23 00:33:35;;;;;;;18.02;7.72;;;;;;;-2.95;49.67;101763.31;4971082;28;20053;-69
2021/12/23 00:36:03;;;;;;;17.95;7.35;;;;;;;-2.95;50.00;101756.50;4973175;28;20034;-69
2021/12/23 00:38:34;;;;;;;17.50;8.50;;;;;;;-2.92;49.91;101763.38;4969459;28;20620;-68
2021/12/23 00:41:03;;;;;;;17.98;6.82;;;;;;;-2.94;50.06;101754.78;4974299;28;20045;-69
2021/12/23 00:43:30;;;;;;;18.88;7.80;;;;;;;-2.96;50.21;101747.09;4968885;28;20284;-70
2021/12/23 00:45:56;;;;;;;18.05;8.15;;;;;;;-2.86;49.71;101743.09;4972250;28;20037;-69
2021/12/23 00:48:21;;;;;;;17.92;7.63;;;;;;;-2.84;49.83;101726.97;4968795;28;20038;-69
2021/12/23 00:50:47;;;;;;;16.17;7.95;;;;;;;-2.91;49.77;101737.84;4963318;28;20536;-70
2021/12/23 00:53:18;;;;;;;18.50;8.73;;;;;;;-2.93;49.87;101731.81;4971213;28;20042;-69
2021/12/23 00:55:45;;;;;;;12.88;6.53;;;;;;;-2.96;49.95;101728.28;4958316;28;20456;-69
2021/12/23 00:58:11;;;;;;;15.77;7.93;;;;;;;-3.06;50.13;101720.34;4960837;28;20092;-71
2021/12/23 01:00:37;;;;;;;20.10;7.82;;;;;;;-2.98;50.11;101718.03;4970263;28;20046;-69
2021/12/23 01:03:03;;;;;;;15.88;7.07;;;;;;;-3.00;50.36;101726.50;4971756;28;20128;-69
2021/12/23 01:05:29;;;;;;;17.38;8.77;;;;;;;-3.08;50.21;101729.66;4971372;28;20030;-69
2021/12/23 01:07:55;;;;;;;22.30;8.18;;;;;;;-3.06;50.04;101729.72;4972369;28;20042;-69
2021/12/23 01:10:23;;;;;;;18.13;8.13;;;;;;;-3.13;50.33;101722.69;4972371;28;20030;-69
2021/12/23 01:12:53;;;;;;;14.63;7.72;;;;;;;-3.11;51.03;101716.81;4970972;28;20055;-69
2021/12/23 01:20:30;;;;;;;17.02;7.93;;;;;;;-3.05;50.45;101711.00;4971394;28;20058;-69
2021/12/23 01:23:02;;;;;;;18.38;9.30;;;;;;;-3.10;50.75;101702.31;4974439;28;20042;-68
2021/12/23 01:25:27;;;;;;;18.77;7.07;;;;;;;-3.09;50.77;101694.69;4971980;28;20388;-69
2021/12/23 01:27:53;;;;;;;20.95;9.48;;;;;;;-3.07;50.40;101690.50;4969496;28;20148;-67
2021/12/23 01:30:20;;;;;;;17.48;8.20;;;;;;;-3.05;50.74;101686.31;4973270;28;20034;-67
2021/12/23 01:32:48;;;;;;;19.30;8.48;;;;;;;-3.16;50.75;101682.56;4953900;28;20503;-67
2021/12/23 01:35:14;;;;;;;15.40;6.80;;;;;;;-3.19;50.85;101676.47;4970170;28;20037;-69
2021/12/23 01:37:41;;;;;;;20.35;9.60;;;;;;;-3.07;50.77;101669.19;4969447;28;20042;-69
2021/12/23 01:40:08;;;;;;;18.35;9.32;;;;;;;-3.37;50.86;101677.66;4956057;28;20034;-69
2021/12/23 01:42:34;;;;;;;24.52;9.32;;;;;;;-3.37;51.45;101669.97;4970508;28;20035;-70
2021/12/23 01:45:00;;;;;;;18.13;8.40;;;;;;;-3.34;51.27;101664.09;4973160;28;20126;-69
2021/12/23 01:47:25;;;;;;;21.02;8.98;;;;;;;-3.24;51.32;101667.81;4956909;28;20127;-69
2021/12/23 01:49:52;;;;;;;19.33;7.88;;;;;;;-3.17;51.18;101669.72;4962950;28;20479;-69
2021/12/23 01:52:17;;;;;;;18.50;8.63;;;;;;;-3.23;51.16;101644.81;4956380;28;20054;-68
2021/12/23 01:54:43;;;;;;;20.10;8.70;;;;;;;-3.20;51.13;101644.06;4970056;28;20034;-69
2021/12/23 01:57:10;;;;;;;17.20;8.38;;;;;;;-3.17;51.26;101639.91;4969116;28;20094;-69
2021/12/23 01:59:35;;;;;;;17.08;8.93;;;;;;;-3.12;51.31;101643.44;4967244;28;20027;-68
2021/12/23 02:02:01;;;;;;;17.48;7.15;;;;;;;-3.05;51.11;101640.25;4970008;28;20476;-69
2021/12/23 02:04:26;;;;;;;21.58;9.95;;;;;;;-3.07;51.30;101636.78;4972500;28;20042;-68
2021/12/23 02:06:52;;;;;;;21.52;8.73;;;;;;;-3.01;50.85;101636.09;4967786;28;20054;-69
2021/12/23 02:09:18;;;;;;;20.88;8.27;;;;;;;-3.08;51.46;101634.19;4971330;28;20023;-69
2021/12/23 02:11:45;;;;;;;16.83;8.20;;;;;;;-3.12;51.16;101622.13;4952796;28;20034;-69
2021/12/23 02:14:10;;;;;;;17.77;8.95;;;;;;;-3.13;51.04;101605.91;4969976;28;20311;-69
2021/12/23 02:16:36;;;;;;;18.70;9.63;;;;;;;-3.10;51.40;101600.03;4959632;28;20643;-69
2021/12/23 02:19:13;;;;;;;17.88;8.27;;;;;;;-3.07;51.12;101598.44;4966794;28;20370;-69
2021/12/23 02:21:42;;;;;;;25.08;8.50;;;;;;;-3.11;51.08;101594.06;4971402;28;20066;-69
2021/12/23 02:24:07;;;;;;;14.82;8.45;;;;;;;-2.99;51.15;101601.19;4971475;28;20466;-69
2021/12/23 02:26:40;;;;;;;18.55;8.10;;;;;;;-3.09;51.28;101602.63;4956705;28;20058;-69
2021/12/23 02:29:05;;;;;;;20.58;9.20;;;;;;;-2.92;50.95;101599.66;4945010;28;20042;-69
2021/12/23 02:31:31;;;;;;;14.75;8.25;;;;;;;-2.99;50.76;101596.06;4951612;28;20050;-70
2021/12/23 02:33:57;;;;;;;14.02;7.38;;;;;;;-2.80;50.36;101583.78;4953334;28;20053;-70
2021/12/23 02:36:23;;;;;;;15.88;8.02;;;;;;;-2.76;50.20;101578.81;4952513;28;20034;-68
2021/12/23 02:38:49;;;;;;;20.75;8.88;;;;;;;-2.74;50.27;101572.00;4936797;28;20038;-68
2021/12/23 02:41:14;;;;;;;12.77;7.22;;;;;;;-2.75;50.17;101567.72;4949840;28;20261;-68
2021/12/23 02:43:40;;;;;;;19.52;8.25;;;;;;;-2.71;50.06;101568.69;4945886;28;20046;-68
2021/12/23 02:46:05;;;;;;;14.60;7.43;;;;;;;-2.75;50.01;101557.50;4952106;28;20435;-68
2021/12/23 02:48:35;;;;;;;21.00;9.20;;;;;;;-2.68;50.11;101551.69;4964531;28;20047;-68
2021/12/23 02:51:06;;;;;;;20.25;8.82;;;;;;;-2.77;49.98;101538.66;4972341;28;20027;-69
2021/12/23 02:53:32;;;;;;;18.17;8.40;;;;;;;-2.85;50.26;101528.25;4968857;28;20143;-68
2021/12/23 02:56:00;;;;;;;15.77;7.45;;;;;;;-2.89;50.29;101517.91;4970404;28;20121;-68
2021/12/23 02:58:26;;;;;;;14.52;7.53;;;;;;;-2.89;50.22;101520.47;4968049;28;20049;-70
2021/12/23 03:00:53;;;;;;;18.38;8.25;;;;;;;-2.81;50.32;101521.50;4962310;28;20039;-69
2021/12/23 03:03:20;;;;;;;12.95;6.85;;;;;;;-2.82;50.07;101508.69;4960398;28;20288;-69
2021/12/23 03:05:51;;;;;;;16.98;7.65;;;;;;;-3.06;50.52;101485.06;4970714;28;20134;-69
2021/12/23 03:08:33;;;;;;;20.27;9.00;;;;;;;-2.89;50.14;101470.16;4970656;28;20050;-69
2021/12/23 03:10:59;;;;;;;16.55;8.77;;;;;;;-3.00;50.88;101448.56;4969610;28;20038;-69
2021/12/23 03:13:25;;;;;;;15.07;7.28;;;;;;;-3.09;50.92;101444.06;4967903;28;20037;-69
2021/12/23 03:15:51;;;;;;;18.13;8.60;;;;;;;-3.13;50.95;101437.16;4970589;28;20464;-69
2021/12/23 03:18:16;;;;;;;17.52;8.70;;;;;;;-3.24;51.47;101424.91;4967041;28;20054;-69
2021/12/23 03:20:43;;;;;;;16.10;7.40;;;;;;;-3.06;50.97;101428.78;4960812;28;20292;-69
2021/12/23 03:23:09;;;;;;;17.70;8.80;;;;;;;-2.99;51.27;101426.41;4968381;28;20109;-69
2021/12/23 03:25:34;;;;;;;17.98;8.35;;;;;;;-3.07;51.31;101414.28;4972141;28;20533;-68
2021/12/23 03:28:00;;;;;;;21.60;8.95;;;;;;;-3.14;51.24;101409.84;4973675;28;20046;-68
2021/12/23 03:30:25;;;;;;;14.70;8.48;;;;;;;-3.23;51.68;101424.06;4965659;28;20042;-69
2021/12/23 03:32:51;;;;;;;21.63;8.50;;;;;;;-3.13;51.38;101421.81;4972839;28;20616;-69
2021/12/23 03:35:16;;;;;;;20.40;8.57;;;;;;;-3.14;51.43;101422.66;4972939;28;20444;-69
2021/12/23 03:37:43;;;;;;;16.30;8.57;;;;;;;-3.15;51.32;101403.00;4973569;28;20547;-69
2021/12/23 03:40:09;;;;;;;19.10;9.13;;;;;;;-3.15;51.53;101394.47;4973059;28;20601;-70
2021/12/23 03:42:35;;;;;;;17.65;9.13;;;;;;;-2.85;51.06;101402.91;4972107;28;20746;-70
2021/12/23 03:45:01;;;;;;;22.60;9.48;;;;;;;-2.78;50.94;101374.88;4972850;28;20038;-70
2021/12/23 03:47:26;;;;;;;21.30;9.85;;;;;;;-3.07;51.12;101350.34;4953727;28;20098;-70
2021/12/23 03:49:51;;;;;;;25.25;9.63;;;;;;;-2.98;50.99;101333.47;4959472;28;20042;-70
2021/12/23 03:52:17;;;;;;;18.25;8.30;;;;;;;-2.82;50.71;101338.13;4972075;28;20050;-69
2021/12/23 03:54:42;;;;;;;17.50;8.20;;;;;;;-2.93;50.85;101347.25;4959698;28;20042;-69
2021/12/23 03:57:08;;;;;;;16.17;8.05;;;;;;;-2.83;50.58;101328.72;4973475;28;20042;-69
2021/12/23 03:59:34;;;;;;;17.50;7.82;;;;;;;-3.08;50.82;101315.38;4972583;28;20061;-69
2021/12/23 04:01:59;;;;;;;16.35;8.05;;;;;;;-3.03;51.14;101309.50;4975132;28;20086;-69
2021/12/23 04:04:25;;;;;;;15.77;7.90;;;;;;;-2.85;50.65;101297.13;4972748;28;20045;-69
2021/12/23 04:06:51;;;;;;;22.52;9.52;;;;;;;-2.89;50.89;101301.31;4958485;28;20082;-69
2021/12/23 04:09:18;;;;;;;21.08;9.32;;;;;;;-2.75;50.04;101311.00;4959668;28;20390;-69
2021/12/23 04:11:43;;;;;;;15.57;7.68;;;;;;;-2.83;50.20;101318.47;4970288;28;20088;-70
2021/12/23 04:14:09;;;;;;;21.30;8.20;;;;;;;-2.56;50.21;101322.47;4974574;28;20678;-69
2021/12/23 04:16:34;;;;;;;15.85;7.88;;;;;;;-2.68;49.94;101343.56;4957265;28;20058;-69
2021/12/23 04:19:05;;;;;;;15.82;7.57;;;;;;;-2.63;50.15;101358.16;4971102;28;20049;-69
2021/12/23 04:21:31;;;;;;;17.70;8.43;;;;;;;-2.55;50.03;101381.41;4972642;28;20052;-70
2021/12/23 04:23:56;;;;;;;15.82;8.57;;;;;;;-2.74;50.47;101374.97;4972532;28;20520;-69
2021/12/23 04:26:22;;;;;;;16.63;7.75;;;;;;;-2.47;49.95;101340.59;4974314;28;20038;-68
2021/12/23 04:28:48;;;;;;;16.00;7.65;;;;;;;-2.99;50.71;101330.06;4961751;28;20536;-68
2021/12/23 04:31:16;;;;;;;15.35;7.55;;;;;;;-2.83;50.42;101351.75;4975207;28;20563;-69
2021/12/23 04:33:44;;;;;;;14.23;7.95;;;;;;;-2.54;49.90;101354.09;4972781;28;20050;-67
2021/12/23 04:36:10;;;;;;;18.33;8.38;;;;;;;-2.44;49.82;101368.84;4972288;28;20460;-67
2021/12/23 04:38:38;;;;;;;19.95;9.18;;;;;;;-2.76;50.31;101374.09;4964216;28;20046;-67
2021/12/23 04:41:04;;;;;;;17.75;9.15;;;;;;;-2.96;50.24;101370.19;4964964;28;20070;-67
2021/12/23 04:43:29;;;;;;;13.32;7.63;;;;;;;-2.49;49.98;101360.16;4970896;28;20066;-67
2021/12/23 04:45:54;;;;;;;17.38;8.55;;;;;;;-2.39;49.77;101346.75;4974120;28;20085;-67
2021/12/23 04:48:20;;;;;;;18.92;8.25;;;;;;;-2.52;49.64;101332.81;4953515;28;20046;-67
2021/12/23 04:50:45;;;;;;;19.48;7.72;;;;;;;-2.59;49.70;101333.53;4970281;28;20512;-67
2021/12/23 04:53:11;;;;;;;15.43;7.28;;;;;;;-2.45;49.19;101326.13;4940631;28;20138;-67
2021/12/23 04:55:36;;;;;;;17.50;7.72;;;;;;;-2.45;49.26;101296.31;4960637;28;20037;-67
2021/12/23 04:58:01;;;;;;;13.10;7.28;;;;;;;-2.28;49.03;101304.31;4971097;28;20134;-67
2021/12/23 05:00:27;;;;;;;16.17;7.57;;;;;;;-2.29;48.55;101294.03;4974614;28;20125;-67
2021/12/23 05:02:52;;;;;;;19.23;8.13;;;;;;;-2.29;48.44;101271.88;4971213;28;20105;-67
2021/12/23 05:05:18;;;;;;;15.90;7.03;;;;;;;-2.25;48.80;101288.13;4972287;28;20051;-67
2021/12/23 05:07:44;;;;;;;16.48;8.77;;;;;;;-2.23;48.83;101281.34;4955936;28;20042;-67
2021/12/23 05:10:11;;;;;;;17.17;7.63;;;;;;;-2.38;49.13;101253.78;4972285;28;20057;-67
2021/12/23 05:12:42;;;;;;;16.45;7.88;;;;;;;-2.16;48.31;101259.28;4970516;28;20085;-67
2021/12/23 05:15:10;;;;;;;13.32;7.72;;;;;;;-2.26;48.58;101240.34;4971797;28;20061;-66
2021/12/23 05:17:35;;;;;;;16.40;7.68;;;;;;;-2.42;48.73;101246.84;4968256;28;20547;-67
2021/12/23 05:20:01;;;;;;;13.63;7.90;;;;;;;-2.26;48.58;101256.56;4952198;28;20026;-67
2021/12/23 05:22:26;;;;;;;17.50;7.97;;;;;;;-2.16;48.26;101231.13;4970595;28;20081;-67
2021/12/23 05:24:52;;;;;;;13.73;6.80;;;;;;;-2.41;48.54;101248.56;4970614;28;20661;-67
2021/12/23 05:27:18;;;;;;;13.57;7.03;;;;;;;-2.14;48.37;101242.25;4956939;28;20053;-67
2021/12/23 05:29:43;;;;;;;13.48;6.85;;;;;;;-2.10;48.04;101244.91;4968691;28;20039;-67
2021/12/23 05:32:09;;;;;;;14.38;7.65;;;;;;;-2.38;48.41;101251.22;4957296;28;20054;-68
2021/12/23 05:34:34;;;;;;;14.02;7.80;;;;;;;-2.42;48.50;101254.53;4952300;28;20030;-68
2021/12/23 05:36:59;;;;;;;15.07;7.55;;;;;;;-2.45;48.67;101252.78;4964276;28;20043;-67
2021/12/23 05:39:25;;;;;;;17.08;7.68;;;;;;;-2.27;48.39;101257.41;4970911;28;20035;-68
2021/12/23 05:41:51;;;;;;;13.43;6.90;;;;;;;-2.24;48.68;101256.59;4969977;28;20042;-69
2021/12/23 05:44:16;;;;;;;16.80;7.32;;;;;;;-2.34;48.95;101252.97;4971658;28;20497;-69
2021/12/23 05:46:42;;;;;;;14.50;7.53;;;;;;;-2.41;48.97;101251.13;4972626;28;20045;-68
2021/12/23 05:49:07;;;;;;;14.52;7.65;;;;;;;-2.38;48.55;101243.53;4955260;28;20031;-68
2021/12/23 05:51:33;;;;;;;18.77;8.27;;;;;;;-2.15;48.26;101227.72;4955314;28;20043;-67
2021/12/23 05:53:58;;;;;;;19.40;8.07;;;;;;;-2.37;48.58;101235.00;4967979;28;20547;-67
2021/12/23 05:56:23;;;;;;;22.00;8.40;;;;;;;-2.72;49.31;101253.06;4971232;28;20123;-67
2021/12/23 05:58:49;;;;;;;16.60;7.65;;;;;;;-2.10;48.09;101247.44;4953400;28;20294;-68
2021/12/23 06:01:15;;;;;;;11.95;7.15;;;;;;;-2.31;48.26;101221.44;4971042;28;20037;-67
2021/12/23 06:03:41;;;;;;;14.65;7.63;;;;;;;-2.16;47.73;101224.28;4955875;28;20047;-67
2021/12/23 06:06:07;;;;;;;13.48;7.70;;;;;;;-1.99;47.26;101211.78;4972763;28;20038;-68
2021/12/23 06:08:32;;;;;;;17.42;7.85;;;;;;;-2.06;47.16;101207.41;4973274;28;20335;-68
2021/12/23 06:10:58;;;;;;;13.93;7.55;;;;;;;-2.22;46.85;101202.00;4972470;28;20038;-68
2021/12/23 06:13:23;;;;;;;14.85;8.18;;;;;;;-2.19;47.09;101182.41;4970317;28;20051;-67
2021/12/23 06:15:49;;;;;;;14.60;6.65;;;;;;;-1.99;46.87;101175.94;4959125;28;20038;-68
2021/12/23 06:18:14;;;;;;;12.95;7.38;;;;;;;-2.21;46.99;101172.13;4967999;28;20042;-67
2021/12/23 06:20:40;;;;;;;14.50;5.85;;;;;;;-2.07;46.82;101159.56;4969317;28;20397;-68
2021/12/23 06:23:05;;;;;;;12.45;7.38;;;;;;;-2.08;46.90;101173.22;4971738;28;20065;-67
2021/12/23 06:25:31;;;;;;;15.32;6.55;;;;;;;-2.19;47.31;101177.28;4972051;28;20042;-67
2021/12/23 06:27:56;;;;;;;16.58;6.72;;;;;;;-2.64;48.44;101169.66;4968983;28;20069;-67
2021/12/23 06:30:22;;;;;;;13.93;6.68;;;;;;;-2.77;48.59;101171.94;4955329;28;20030;-67
2021/12/23 06:32:53;;;;;;;12.52;6.28;;;;;;;-2.28;47.59;101160.91;4969396;28;20046;-68
2021/12/23 06:35:22;;;;;;;14.50;7.57;;;;;;;-2.40;47.90;101155.59;4953398;28;20050;-68
2021/12/23 06:37:48;;;;;;;17.10;7.43;;;;;;;-2.45;48.23;101146.94;4970627;28;20034;-69
2021/12/23 06:40:14;;;;;;;14.35;6.32;;;;;;;-2.09;47.61;101138.19;4957135;28;20066;-68
2021/12/23 06:42:43;;;;;;;16.98;7.18;;;;;;;-2.39;48.26;101159.88;4954795;28;20104;-68
2021/12/23 06:45:09;;;;;;;16.98;7.65;;;;;;;-2.45;48.14;101159.75;4958294;28;20038;-69
2021/12/23 06:47:36;;;;;;;15.27;6.88;;;;;;;-2.21;47.95;101146.53;4970094;28;20046;-68
2021/12/23 06:50:03;;;;;;;14.80;6.82;;;;;;;-1.91;47.00;101145.28;4945538;28;20039;-66
2021/12/23 06:52:30;;;;;;;15.25;7.32;;;;;;;-1.86;46.71;101133.44;4971467;28;20106;-67
2021/12/23 06:54:57;;;;;;;15.45;7.25;;;;;;;-1.83;46.63;101118.09;4970150;28;20413;-67
2021/12/23 06:57:24;;;;;;;17.60;7.85;;;;;;;-1.88;46.90;101115.47;4969699;28;20117;-68
2021/12/23 06:59:49;;;;;;;17.30;7.07;;;;;;;-1.90;46.96;101109.47;4973003;28;20023;-69
2021/12/23 07:02:15;;;;;;;15.50;6.97;;;;;;;-1.74;46.73;101096.88;4973978;28;20128;-68
2021/12/23 07:04:43;;;;;;;15.52;7.13;;;;;;;-1.89;46.85;101100.97;4973424;28;20037;-69
2021/12/23 07:07:10;;;;;;;12.50;6.95;;;;;;;-1.83;46.96;101092.47;4975393;28;20103;-69
2021/12/23 07:09:42;;;;;;;11.32;6.63;;;;;;;-2.25;47.66;101079.03;4956096;28;20042;-69
2021/12/23 07:12:10;;;;;;;15.60;7.43;;;;;;;-2.02;47.56;101070.88;4976753;28;20073;-69
2021/12/23 07:14:37;;;;;;;15.57;7.55;;;;;;;-2.00;47.61;101079.41;4973711;28;20034;-69
2021/12/23 07:17:04;;;;;;;13.48;7.50;;;;;;;-2.29;48.27;101077.28;4976284;28;20703;-68
2021/12/23 07:19:29;;;;;;;15.23;7.70;;;;;;;-2.11;47.54;101058.78;4974207;28;20034;-69
2021/12/23 07:21:55;;;;;;;16.63;7.22;;;;;;;-1.94;47.41;101059.00;4972757;28;20103;-69
2021/12/23 07:24:21;;;;;;;16.70;7.53;;;;;;;-1.94;47.08;101042.78;4958115;28;20039;-69
2021/12/23 07:26:47;;;;;;;13.25;7.63;;;;;;;-2.61;48.90;101061.34;4970972;28;20034;-69
2021/12/23 07:29:12;;;;;;;13.50;7.75;;;;;;;-2.79;49.45;101074.69;4960935;28;20031;-69
2021/12/23 07:31:38;;;;;;;13.13;6.80;;;;;;;-2.09;47.80;101062.22;4963553;28;20046;-68
2021/12/23 07:34:03;;;;;;;16.02;7.28;;;;;;;-2.14;47.55;101066.38;4961629;28;20039;-68
2021/12/23 07:36:29;;;;;;;19.58;8.20;;;;;;;-1.87;47.17;101065.94;4971149;28;20062;-69
2021/12/23 07:38:55;;;;;;;17.83;7.00;;;;;;;-1.96;47.65;101068.38;4970750;28;20503;-69
2021/12/23 07:41:22;;;;;;;13.93;7.90;;;;;;;-2.10;47.78;101068.16;4973773;28;20065;-69
2021/12/23 07:44:03;;;;;;;15.63;7.53;;;;;;;-1.93;47.60;101055.63;4970327;28;20476;-68
2021/12/23 07:46:33;;;;;;;14.60;7.17;;;;;;;-1.88;47.31;101061.66;4976284;28;20081;-69
2021/12/23 07:48:58;;;;;;;18.08;8.52;;;;;;;-1.75;46.83;101059.28;4956786;28;20050;-68
2021/12/23 07:51:24;;;;;;;18.25;6.80;;;;;;;-1.95;47.39;101061.56;4974127;28;20026;-68
2021/12/23 07:53:53;;;;;;;15.30;8.20;;;;;;;-1.73;46.89;101043.09;4973138;28;20045;-69
2021/12/23 07:56:19;;;;;;;15.63;7.78;;;;;;;-1.59;46.31;101025.34;4959366;28;20459;-68
2021/12/23 07:58:45;;;;;;;13.38;6.68;;;;;;;-1.69;46.63;101018.34;4972361;28;20097;-69
2021/12/23 08:01:11;;;;;;;11.27;7.00;;;;;;;-1.99;47.45;101019.66;4975292;28;20109;-69
2021/12/23 08:03:36;;;;;;;12.55;6.88;;;;;;;-1.77;46.47;101010.56;4974118;28;20051;-69
2021/12/23 08:06:02;;;;;;;15.45;7.25;;;;;;;-1.88;46.88;100995.06;4972960;28;20093;-69
2021/12/23 08:08:28;;;;;;;11.25;6.43;;;;;;;-1.67;46.58;100986.78;4960808;28;20039;-69
2021/12/23 08:10:54;;;;;;;12.00;6.07;;;;;;;-1.67;46.43;100998.72;4958019;28;20034;-70
2021/12/23 08:13:20;;;;;;;13.40;7.30;;;;;;;-2.02;47.29;100991.47;4970668;28;20587;-68
2021/12/23 08:15:45;;;;;;;17.00;7.50;;;;;;;-1.67;46.34;100988.47;4959156;28;20034;-69
2021/12/23 08:18:11;;;;;;;14.00;7.40;;;;;;;-1.54;46.01;100992.06;4974568;28;20039;-68
2021/12/23 08:20:36;;;;;;;14.65;7.07;;;;;;;-1.66;46.15;100992.78;4971784;28;20066;-69
2021/12/23 08:23:03;;;;;;;13.23;7.60;;;;;;;-1.69;46.32;100982.47;4959725;28;20562;-69
2021/12/23 08:25:28;;;;;;;12.93;6.53;;;;;;;-1.77;46.57;100979.81;4969517;28;20526;-69
2021/12/23 08:27:54;;;;;;;11.32;6.03;;;;;;;-2.02;47.27;100988.91;4971011;28;20109;-69
2021/12/23 08:30:21;;;;;;;16.92;8.07;;;;;;;-1.94;47.38;100999.22;4974547;28;20066;-69
2021/12/23 08:32:48;;;;;;;14.45;7.32;;;;;;;-1.92;47.27;101012.94;4963694;28;20501;-69
2021/12/23 08:35:14;;;;;;;13.32;6.75;;;;;;;-1.64;46.66;101021.84;4973498;28;20436;-69
2021/12/23 08:37:40;;;;;;;14.73;7.88;;;;;;;-1.75;47.25;101013.16;4973122;28;20471;-69
2021/12/23 08:40:08;;;;;;;17.02;7.43;;;;;;;-1.62;46.92;101004.75;4963066;28;20064;-70
2021/12/23 08:42:35;;;;;;;17.27;6.65;;;;;;;-1.55;46.82;101000.56;4972573;28;20047;-69
2021/12/23 08:45:04;;;;;;;14.95;6.43;;;;;;;-2.07;47.99;101011.88;4974191;28;20508;-69
2021/12/23 08:47:30;;;;;;;17.45;8.35;;;;;;;-2.02;48.11;101004.25;4970215;28;20093;-69
2021/12/23 08:49:57;;;;;;;13.75;7.45;;;;;;;-1.75;47.31;100977.28;4964419;28;20154;-69
2021/12/23 08:52:22;;;;;;;12.98;7.75;;;;;;;-1.40;46.47;100968.31;4972098;28;20046;-69
2021/12/23 08:54:48;;;;;;;13.27;7.03;;;;;;;-1.91;47.61;100964.28;4968366;28;20108;-69
2021/12/23 08:57:14;;;;;;;17.58;8.18;;;;;;;-1.73;46.83;100955.09;4972557;28;20145;-70
2021/12/23 08:59:39;;;;;;;15.25;7.20;;;;;;;-1.64;46.34;100935.56;4970979;28;20458;-69
2021/12/23 09:02:05;;;;;;;16.13;7.47;;;;;;;-1.54;46.51;100957.03;4971053;28;20603;-69
2021/12/23 09:04:30;;;;;;;16.92;7.95;;;;;;;-1.57;47.24;100961.28;4970235;28;20038;-69
2021/12/23 09:06:56;;;;;;;18.42;7.22;;;;;;;-1.66;47.05;100967.16;4973514;28;20047;-69
2021/12/23 09:09:24;;;;;;;15.82;8.23;;;;;;;-1.35;46.14;100952.97;4957258;28;20030;-69
2021/12/23 09:11:50;;;;;;;13.52;6.70;;;;;;;-1.97;48.03;100946.25;4955689;28;20045;-69
2021/12/23 09:14:17;;;;;;;18.15;8.30;;;;;;;-1.61;47.28;100940.72;4971466;28;20031;-69
2021/12/23 09:16:43;;;;;;;13.70;7.38;;;;;;;-1.80;47.94;100931.09;4962619;28;20109;-69
2021/12/23 09:19:09;;;;;;;17.08;7.00;;;;;;;-1.56;47.43;100929.66;4973931;28;20051;-69
2021/12/23 09:21:36;;;;;;;14.15;7.68;;;;;;;-1.98;48.17;100938.56;4958559;28;20220;-69
2021/12/23 09:24:03;;;;;;;19.02;8.20;;;;;;;-2.33;49.37;100937.25;4954686;28;20106;-68
2021/12/23 09:26:33;;;;;;;16.60;8.60;;;;;;;-2.01;48.21;100939.38;4951233;28;20026;-69
2021/12/23 09:34:11;;;;;;;16.80;8.63;;;;;;;-1.43;46.81;100916.97;4972372;28;20109;-69
2021/12/23 09:36:39;;;;;;;13.45;7.25;;;;;;;-1.52;47.28;100916.88;4971219;28;20557;-69
2021/12/23 09:39:06;;;;;;;16.40;7.28;;;;;;;-1.45;47.77;100921.22;4971531;28;20039;-69
2021/12/23 09:41:33;;;;;;;14.77;7.93;;;;;;;-1.75;48.32;100905.53;4971266;28;20267;-69
2021/12/23 09:44:00;;;;;;;14.93;7.20;;;;;;;-1.34;47.48;100905.13;4971729;28;20066;-68
2021/12/23 09:46:25;;;;;;;17.33;8.73;;;;;;;-1.20;47.18;100895.81;4957914;28;20208;-69
2021/12/23 09:48:52;;;;;;;15.15;7.50;;;;;;;-1.34;47.68;100892.28;4971027;28;20042;-69
2021/12/23 09:51:21;;;;;;;19.58;9.32;;;;;;;-1.33;48.05;100894.00;4956868;28;20042;-69
2021/12/23 09:53:57;;;;;;;17.85;9.27;;;;;;;-1.90;48.96;100901.94;4970909;28;20058;-69
2021/12/23 09:56:24;;;;;;;16.90;8.70;;;;;;;-1.47;48.59;100899.84;4971549;28;20069;-69
2021/12/23 09:58:50;;;;;;;19.58;9.27;;;;;;;-1.69;49.03;100908.16;4968461;28;20520;-68
2021/12/23 10:01:15;;;;;;;21.80;9.57;;;;;;;-1.78;48.97;100900.38;4959531;28;20035;-68
2021/12/23 10:03:41;;;;;;;21.30;9.57;;;;;;;-1.42;48.23;100885.38;4960692;28;20049;-70
2021/12/23 10:06:06;;;;;;;19.80;9.55;;;;;;;-1.56;48.74;100884.38;4970824;28;20117;-69
2021/12/23 10:08:32;;;;;;;26.42;10.70;;;;;;;-2.53;50.89;100897.72;4969275;28;20053;-69
2021/12/23 10:11:14;;;;;;;27.20;10.18;;;;;;;-1.83;49.33;100903.72;4972453;28;20042;-69
2021/12/23 10:30:33;;;;;;;30.00;13.23;;;;;;;-1.62;49.78;100857.00;4952200;28;20042;-68
2021/12/23 10:33:29;;;;;;;24.58;11.82;;;;;;;-2.19;50.88;100852.06;4964384;28;20137;-69
2021/12/23 10:38:33;;;;;;;25.52;12.07;;;;;;;-1.28;49.45;100835.94;4957916;28;20118;-69
2021/12/23 10:41:09;;;;;;;26.90;12.60;;;;;;;-1.73;50.13;100837.19;4952827;28;20072;-70
2021/12/23 10:43:37;;;;;;;25.60;12.93;;;;;;;-1.63;50.33;100815.97;4958252;28;20051;-69
2021/12/23 10:46:19;;;;;;;30.08;14.02;;;;;;;-1.78;50.37;100823.50;4934535;28;20076;-69
2021/12/23 10:49:09;;;;;;;26.00;12.07;;;;;;;-2.25;51.89;100817.84;4959893;23;20416;-69
2021/12/23 10:52:04;;;;;;;32.53;13.88;;;;;;;-2.39;52.32;100828.78;4952094;28;20685;-68
2021/12/23 11:00:22;;;;;;;28.75;13.20;;;;;;;-2.55;53.58;100820.91;4935971;28;20043;-69
2021/12/23 11:03:13;;;;;;;33.90;13.57;;;;;;;-2.22;53.37;100829.84;4952599;28;20046;-69
2021/12/23 11:05:48;;;;;;;29.15;12.80;;;;;;;-2.59;54.79;100828.50;4954072;28;20551;-69
2021/12/23 11:08:25;;;;;;;32.72;15.02;;;;;;;-2.78;55.39;100809.47;4938596;28;20046;-69
2021/12/23 11:38:19;;;;;;;37.50;16.13;;;;;;;-1.87;54.93;100740.56;4951868;28;20113;-69
2021/12/23 11:45:48;;;;;;;34.10;15.43;;;;;;;-1.56;54.30;100704.94;4932694;28;20182;-69
2021/12/23 11:48:15;;;;;;;31.52;15.00;;;;;;;-2.39;55.83;100706.75;4951533;28;20138;-69
2021/12/23 11:53:26;;;;;;;34.75;15.43;;;;;;;-1.93;55.06;100694.41;4937077;28;20030;-68
2021/12/23 11:55:53;;;;;;;37.45;15.05;;;;;;;-1.66;54.45;100690.38;4955334;28;20034;-68
2021/12/23 11:58:26;;;;;;;37.80;16.52;;;;;;;-1.59;54.38;100669.06;4954256;28;20339;-69
2021/12/23 12:01:15;;;;;;;37.13;15.98;;;;;;;-1.55;54.39;100673.34;4936435;28;20065;-69
2021/12/23 12:03:57;;;;;;;29.75;13.90;;;;;;;-1.46;54.01;100668.28;4952867;28;20444;-69
2021/12/23 12:06:26;;;;;;;32.53;15.02;;;;;;;-1.46;54.11;100662.31;4953912;28;20038;-69
2021/12/23 12:08:56;;;;;;;33.22;14.98;;;;;;;-2.29;56.75;100662.50;4956797;28;20457;-69
2021/12/23 12:11:25;;;;;;;34.45;16.92;;;;;;;-1.89;55.91;100656.84;4957399;28;20043;-69
2021/12/23 12:13:50;;;;;;;37.13;17.13;;;;;;;-1.83;55.15;100652.63;4952379;28;20109;-70
2021/12/23 12:16:31;;;;;;;36.17;16.13;;;;;;;-1.64;55.16;100663.03;4957372;28;20394;-70
2021/12/23 12:18:57;;;;;;;40.15;17.15;;;;;;;-1.75;55.61;100659.56;4967886;23;20434;-71
2021/12/23 12:21:31;;;;;;;29.73;14.82;;;;;;;-1.71;55.57;100657.03;4957169;28;20038;-72
2021/12/23 12:24:20;;;;;;;29.70;13.05;;;;;;;-1.51;55.09;100657.16;4968850;28;20049;-68
2021/12/23 12:27:01;;;;;;;33.20;17.00;;;;;;;-1.78;55.96;100669.75;4957809;28;20141;-71
2021/12/23 12:29:37;;;;;;;36.80;16.20;;;;;;;-1.48;55.39;100667.41;4953508;28;20149;-70
2021/12/23 12:32:05;;;;;;;34.15;14.93;;;;;;;-1.69;55.89;100664.69;4971261;28;20073;-71
2021/12/23 12:34:37;;;;;;;37.17;16.08;;;;;;;-1.48;55.12;100652.03;4969130;28;20579;-72